Time;durP1;ratioP1;P1;durP2;ratioP2;P2;SDS_P1;SDS_P2;PMS_P1;PMS_P2;Temp;Humidity;BMP_temperature;BMP_pressure;BME280_temperature;BME280_humidity;BME280_pressure;Samples;Min_cycle;Max_cycle;Signal;HPM_P1;HPM_P2
2023/08/17 00:02:07;;;;;;;0.30;0.30;;;27.60;62.40;;;28.14;47.15;95202.09;5051257;28;20230;-39
2023/08/17 00:04:34;;;;;;;0.30;0.30;;;27.60;62.50;;;28.12;47.26;95205.09;5035121;28;20200;-39
2023/08/17 00:07:01;;;;;;;0.30;0.30;;;27.60;62.40;;;28.12;46.78;95202.41;5035073;28;20195;-39
2023/08/17 00:09:28;;;;;;;0.30;0.30;;;27.60;62.50;;;28.10;46.80;95204.63;5034810;28;20327;-39
2023/08/17 00:11:56;;;;;;;0.30;0.30;;;27.60;62.50;;;28.10;47.01;95197.31;5034226;28;20234;-39
2023/08/17 00:14:23;;;;;;;0.30;0.30;;;27.60;62.50;;;28.08;47.52;95196.81;5035240;28;20191;-39
2023/08/17 00:16:50;;;;;;;0.30;0.30;;;27.50;62.60;;;28.09;47.44;95197.63;5034909;28;20190;-39
2023/08/17 00:19:18;;;;;;;0.30;0.30;;;27.60;62.60;;;28.09;46.97;95192.22;5034792;28;20654;-39
2023/08/17 00:21:45;;;;;;;0.30;0.30;;;27.60;62.70;;;28.10;47.32;95197.31;5034021;28;20210;-39
2023/08/17 00:24:13;;;;;;;0.40;0.40;;;27.60;62.70;;;28.11;47.43;95192.72;5018124;28;20204;-39
2023/08/17 00:26:40;;;;;;;0.30;0.30;;;27.50;62.60;;;28.11;46.91;95198.09;5034849;28;20277;-39
2023/08/17 00:29:07;;;;;;;0.30;0.30;;;27.50;62.50;;;28.08;46.92;95191.41;5034855;28;20313;-39
2023/08/17 00:31:34;;;;;;;0.30;0.30;;;27.50;62.50;;;28.06;47.34;95190.94;5034796;28;20261;-39
2023/08/17 00:34:02;;;;;;;0.30;0.30;;;27.50;62.60;;;28.05;47.65;95186.63;5035044;28;20259;-39
2023/08/17 00:36:30;;;;;;;0.20;0.20;;;27.60;62.60;;;28.04;47.24;95186.88;5033767;28;20635;-39
2023/08/17 00:38:57;;;;;;;0.40;0.40;;;27.60;62.70;;;28.01;47.40;95187.47;5034578;28;20243;-39
2023/08/17 00:41:24;;;;;;;0.40;0.40;;;27.50;62.60;;;27.99;47.13;95184.28;5034752;28;20199;-39
2023/08/17 00:43:51;;;;;;;0.30;0.30;;;27.50;62.60;;;27.96;47.21;95175.69;5034690;28;20233;-39
2023/08/17 00:46:20;;;;;;;0.30;0.30;;;27.50;62.60;;;27.95;47.04;95171.41;5034672;28;20198;-39
2023/08/17 00:48:47;;;;;;;0.30;0.30;;;27.50;62.50;;;27.93;47.05;95164.72;5033638;28;20319;-39
2023/08/17 00:51:15;;;;;;;0.20;0.20;;;27.50;62.70;;;27.92;47.04;95169.28;5034466;28;20289;-39
2023/08/17 00:53:42;;;;;;;0.32;0.32;;;27.50;62.60;;;27.93;47.10;95170.09;5017353;28;20634;-39
2023/08/17 00:56:09;;;;;;;0.30;0.30;;;27.50;62.60;;;27.92;47.06;95168.50;5037301;28;20212;-39
2023/08/17 00:58:37;;;;;;;0.30;0.30;;;27.50;62.60;;;27.88;47.46;95170.16;5038443;28;20188;-39
2023/08/17 01:01:07;;;;;;;0.30;0.30;;;27.40;62.70;;;27.88;47.37;95172.84;5037359;28;20184;-39
2023/08/17 01:03:36;;;;;;;0.32;0.32;;;27.40;62.60;;;27.89;47.43;95182.56;5037567;28;20202;-39
2023/08/17 01:06:03;;;;;;;0.30;0.30;;;27.40;62.70;;;27.89;47.34;95182.56;5037437;28;20205;-39
2023/08/17 01:08:30;;;;;;;0.30;0.30;;;27.40;62.70;;;27.87;47.34;95169.38;5053865;28;20235;-39
2023/08/17 01:11:27;;;;;;;0.30;0.30;;;27.40;62.60;;;27.84;47.63;95169.97;5037175;28;20199;-39
2023/08/17 01:14:15;;;;;;;0.30;0.30;;;27.40;62.70;;;27.80;47.25;95171.66;5037271;28;20229;-39
2023/08/17 01:17:02;;;;;;;0.30;0.30;;;27.40;62.80;;;27.77;47.77;95170.34;5038209;28;20199;-39
2023/08/17 01:19:29;;;;;;;0.30;0.30;;;27.40;62.80;;;27.75;47.78;95164.44;5038190;28;20255;-39
2023/08/17 01:22:08;;;;;;;0.30;0.30;;;27.40;62.70;;;27.73;47.24;95174.72;5037188;28;20293;-39
2023/08/17 01:24:35;;;;;;;0.30;0.30;;;27.30;62.70;;;27.73;47.92;95176.63;5037083;28;20255;-39
2023/08/17 01:27:02;;;;;;;0.30;0.30;;;27.30;62.80;;;27.75;47.61;95171.75;5037021;28;20210;-39
2023/08/17 01:29:30;;;;;;;0.20;0.20;;;27.20;62.80;;;27.76;47.46;95173.34;5038099;28;20694;-39
2023/08/17 01:32:27;;;;;;;0.30;0.30;;;27.30;63.00;;;27.75;47.93;95177.13;5036970;28;20188;-39
2023/08/17 01:35:11;;;;;;;0.30;0.30;;;27.20;62.90;;;27.73;48.18;95176.63;5037564;28;20244;-40
2023/08/17 01:37:43;;;;;;;0.28;0.28;;;27.30;63.10;;;27.72;47.42;95177.72;5037206;28;20222;-40
2023/08/17 01:40:13;;;;;;;0.30;0.30;;;27.20;63.00;;;27.73;47.86;95188.19;5037058;28;20197;-40
2023/08/17 01:42:42;;;;;;;0.30;0.30;;;27.20;63.00;;;27.74;48.06;95191.69;5037933;28;20203;-39
2023/08/17 01:45:10;;;;;;;0.30;0.30;;;27.20;63.00;;;27.73;47.42;95184.72;5037593;28;20202;-40
2023/08/17 01:47:37;;;;;;;0.30;0.30;;;27.20;63.00;;;27.72;47.78;95175.84;5036568;28;20230;-41
2023/08/17 01:50:05;;;;;;;0.30;0.30;;;27.20;63.00;;;27.71;47.95;95176.94;5036342;28;20602;-40
2023/08/17 01:52:33;;;;;;;0.30;0.30;;;27.20;62.90;;;27.70;48.15;95172.63;5037696;28;20194;-39
2023/08/17 01:55:00;;;;;;;0.30;0.30;;;27.20;63.00;;;27.71;47.57;95176.94;5037984;28;20514;-36
2023/08/17 01:57:28;;;;;;;0.30;0.30;;;27.20;63.00;;;27.72;48.01;95180.41;5036487;28;20200;-37
2023/08/17 01:59:55;;;;;;;0.30;0.30;;;27.20;63.10;;;27.71;47.85;95184.19;5052895;28;20303;-37
2023/08/17 02:02:22;;;;;;;0.30;0.30;;;27.20;63.00;;;27.68;48.23;95182.88;5052965;28;20193;-37
2023/08/17 02:04:49;;;;;;;0.30;0.30;;;27.20;62.90;;;27.69;47.60;95184.50;5037234;28;20222;-37
2023/08/17 02:07:17;;;;;;;0.30;0.30;;;27.20;63.00;;;27.66;47.83;95185.09;5036418;28;20267;-37
2023/08/17 02:09:48;;;;;;;0.30;0.30;;;27.20;63.00;;;27.64;47.77;95188.06;5036051;28;20220;-37
2023/08/17 02:12:15;;;;;;;0.30;0.30;;;27.20;63.00;;;27.65;47.96;95186.19;5037099;28;20195;-37
2023/08/17 02:14:43;;;;;;;0.30;0.30;;;27.20;63.10;;;27.65;47.57;95186.19;5036126;28;20604;-37
2023/08/17 02:17:10;;;;;;;0.30;0.30;;;27.20;63.00;;;27.64;48.17;95184.59;5036133;28;20197;-37
2023/08/17 02:19:38;;;;;;;0.30;0.30;;;27.20;63.10;;;27.63;47.90;95185.66;5037065;28;20537;-37
2023/08/17 02:22:05;;;;;;;0.30;0.30;;;27.20;63.00;;;27.60;47.61;95178.97;5036906;28;20204;-37
2023/08/17 02:24:32;;;;;;;0.30;0.30;;;27.20;63.00;;;27.59;47.77;95188.16;5037154;28;20192;-37
2023/08/17 02:26:59;;;;;;;0.30;0.30;;;27.20;63.10;;;27.60;47.65;95189.75;5035876;28;20313;-37
2023/08/17 02:29:26;;;;;;;0.30;0.30;;;27.10;63.00;;;27.60;48.09;95195.16;5052383;28;20235;-38
2023/08/17 02:31:53;;;;;;;0.35;0.35;;;27.10;63.00;;;27.58;48.10;95189.25;5052255;28;20303;-39
2023/08/17 02:34:20;;;;;;;0.30;0.30;;;27.10;63.10;;;27.58;48.12;95194.63;5035741;28;20549;-37
2023/08/17 02:36:47;;;;;;;0.30;0.30;;;27.10;63.10;;;27.58;48.14;95186.53;5036115;28;20203;-37
2023/08/17 02:39:15;;;;;;;0.30;0.30;;;27.10;63.20;;;27.59;47.73;95188.16;5036600;28;20240;-37
2023/08/17 02:41:44;;;;;;;0.32;0.32;;;27.10;63.20;;;27.59;48.12;95185.47;5036425;28;20210;-37
2023/08/17 02:44:11;;;;;;;0.30;0.30;;;27.10;63.20;;;27.56;47.60;95190.63;5036762;28;20192;-36
2023/08/17 02:46:40;;;;;;;0.40;0.40;;;27.10;63.10;;;27.54;47.74;95185.53;5052201;28;20630;-37
2023/08/17 02:49:07;;;;;;;0.35;0.35;;;27.10;63.10;;;27.54;47.93;95185.53;5037163;28;20231;-39
2023/08/17 02:51:34;;;;;;;0.30;0.30;;;27.10;63.20;;;27.55;47.90;95183.63;5035408;28;20188;-44
2023/08/17 02:54:02;;;;;;;0.30;0.30;;;27.10;63.20;;;27.53;47.85;95183.16;5036606;28;20272;-41
2023/08/17 02:56:29;;;;;;;0.30;0.30;;;27.10;63.10;;;27.52;47.82;95179.63;5035591;28;20195;-36
2023/08/17 02:58:56;;;;;;;0.30;0.30;;;27.10;63.10;;;27.52;47.89;95187.72;5035395;28;20232;-36
2023/08/17 03:01:25;;;;;;;0.30;0.30;;;27.10;63.10;;;27.52;47.84;95184.25;5051711;28;20261;-36
2023/08/17 03:03:52;;;;;;;0.30;0.30;;;27.10;63.10;;;27.50;48.44;95181.81;5051834;28;20203;-36
2023/08/17 03:06:19;;;;;;;0.35;0.35;;;27.10;63.20;;;27.49;47.75;95172.16;5036428;28;20203;-36
2023/08/17 03:08:46;;;;;;;0.40;0.40;;;27.10;63.10;;;27.43;47.90;95166.03;5051682;28;20251;-36
2023/08/17 03:11:13;;;;;;;0.30;0.30;;;27.10;63.20;;;27.47;48.26;95174.34;5035039;28;20291;-36
2023/08/17 03:13:41;;;;;;;0.30;0.30;;;27.00;63.10;;;27.38;47.99;95162.59;5018715;28;20192;-36
2023/08/17 03:16:10;;;;;;;0.30;0.30;;;27.00;63.10;;;27.40;48.18;95168.50;5035217;28;20214;-36
2023/08/17 03:18:37;;;;;;;0.30;0.30;;;27.00;63.20;;;27.36;48.06;95168.28;5035812;28;20198;-36
2023/08/17 03:21:04;;;;;;;0.35;0.35;;;27.00;63.10;;;27.35;48.49;95177.44;5051527;28;20216;-36
2023/08/17 03:23:33;;;;;;;0.30;0.30;;;27.00;63.20;;;27.35;48.40;95184.72;5036048;28;20206;-36
2023/08/17 03:26:01;;;;;;;0.30;0.30;;;26.90;63.10;;;27.35;48.37;95177.44;5035814;28;20278;-36
2023/08/17 03:28:29;;;;;;;0.22;0.22;;;26.90;63.20;;;27.34;47.95;95178.53;5035748;28;20218;-36
2023/08/17 03:30:56;;;;;;;0.30;0.30;;;26.90;63.30;;;27.35;48.42;95177.44;5034732;28;20193;-36
2023/08/17 03:33:25;;;;;;;0.30;0.30;;;26.90;63.30;;;27.35;48.11;95182.03;5034667;28;20275;-36
2023/08/17 03:35:52;;;;;;;0.30;0.30;;;26.90;63.40;;;27.34;48.05;95189.31;5051230;28;20213;-36
2023/08/17 03:38:19;;;;;;;0.30;0.30;;;26.90;63.40;;;27.35;48.65;95185.53;5018369;28;20209;-36
2023/08/17 03:40:49;;;;;;;0.30;0.30;;;26.90;63.40;;;27.35;48.32;95182.81;5051002;28;20214;-36
2023/08/17 03:43:17;;;;;;;0.40;0.40;;;26.90;63.40;;;27.36;48.41;95184.44;5034604;28;20298;-36
2023/08/17 03:45:44;;;;;;;0.30;0.30;;;26.90;63.40;;;27.36;48.37;95178.25;5035512;28;20717;-36
2023/08/17 03:48:12;;;;;;;0.30;0.30;;;26.90;63.30;;;27.36;48.58;95186.34;5017995;28;20260;-36
2023/08/17 03:50:39;;;;;;;0.30;0.30;;;26.90;63.40;;;27.33;48.06;95182.31;5017940;28;20235;-36
2023/08/17 03:53:06;;;;;;;0.40;0.40;;;26.90;63.20;;;27.30;48.02;95188.28;5035299;28;20219;-36
2023/08/17 03:55:33;;;;;;;0.30;0.30;;;26.90;63.30;;;27.26;48.54;95190.78;5050960;28;20583;-36
2023/08/17 03:58:01;;;;;;;0.30;0.30;;;26.90;63.30;;;27.25;48.00;95191.06;5035596;28;20267;-36
2023/08/17 04:00:28;;;;;;;0.38;0.38;;;26.90;63.20;;;27.24;48.34;95195.63;5034396;28;20201;-36
2023/08/17 04:02:58;;;;;;;0.30;0.30;;;26.90;63.40;;;27.24;48.20;95202.94;5050738;28;20272;-36
2023/08/17 04:05:25;;;;;;;0.30;0.30;;;26.90;63.40;;;27.25;48.80;95201.84;5034296;28;20209;-36
2023/08/17 04:07:52;;;;;;;0.30;0.30;;;26.80;63.20;;;27.23;48.24;95201.31;5034815;28;20227;-37
2023/08/17 04:10:20;;;;;;;0.30;0.30;;;26.90;63.20;;;27.22;48.37;95205.91;5035460;28;20221;-39
2023/08/17 04:12:48;;;;;;;0.30;0.30;;;26.80;63.20;;;27.18;47.93;95196.81;5034963;28;20206;-37
2023/08/17 04:15:15;;;;;;;0.30;0.30;;;26.80;63.20;;;27.19;48.51;95193.03;5050615;28;20246;-37
2023/08/17 04:17:42;;;;;;;0.30;0.30;;;26.80;63.20;;;27.17;48.09;95193.31;5035212;28;20197;-37
2023/08/17 04:20:11;;;;;;;0.40;0.40;;;26.80;63.40;;;27.17;48.84;95190.63;5050635;28;20238;-37
2023/08/17 04:22:38;;;;;;;0.30;0.30;;;26.80;63.50;;;27.19;48.78;95193.03;5034061;28;20361;-42
2023/08/17 04:25:05;;;;;;;0.30;0.30;;;26.80;63.50;;;27.20;48.53;95201.91;5035208;28;20200;-49
2023/08/17 04:27:33;;;;;;;0.30;0.30;;;26.80;63.50;;;27.23;48.61;95207.50;5035198;28;20233;-42
2023/08/17 04:30:01;;;;;;;0.30;0.30;;;26.80;63.60;;;27.23;48.67;95199.41;5052282;28;20680;-41
2023/08/17 04:32:36;;;;;;;0.30;0.30;;;26.80;63.70;;;27.23;48.81;95196.72;5038019;28;20271;-42
2023/08/17 04:35:05;;;;;;;0.30;0.30;;;26.80;63.60;;;27.24;48.30;95202.94;5039151;28;20534;-41
2023/08/17 04:37:32;;;;;;;0.32;0.32;;;26.80;63.60;;;27.25;49.00;95201.84;5037941;28;20202;-44
2023/08/17 04:40:00;;;;;;;0.30;0.30;;;26.80;63.60;;;27.26;48.57;95206.13;5037890;28;20208;-42
2023/08/17 04:42:27;;;;;;;0.30;0.30;;;26.80;63.50;;;27.27;48.94;95205.84;5021378;28;20198;-41
2023/08/17 04:44:54;;;;;;;0.30;0.30;;;26.80;63.60;;;27.26;48.85;95198.06;5037884;28;20206;-41
2023/08/17 04:47:22;;;;;;;0.30;0.30;;;26.90;63.60;;;27.28;48.70;95207.44;5038709;28;20290;-39
2023/08/17 04:49:49;;;;;;;0.30;0.30;;;26.90;63.70;;;27.30;48.87;95204.47;5054272;28;20337;-39
2023/08/17 04:52:16;;;;;;;0.30;0.30;;;26.80;63.70;;;27.31;49.02;95200.69;5037488;28;20237;-39
2023/08/17 04:54:44;;;;;;;0.30;0.30;;;26.90;63.70;;;27.30;48.37;95199.06;5037635;28;20212;-40
2023/08/17 04:57:11;;;;;;;0.30;0.30;;;26.90;63.60;;;27.30;48.39;95205.25;5054210;28;20301;-40
2023/08/17 04:59:38;;;;;;;0.30;0.30;;;26.90;63.60;;;27.29;48.89;95192.91;5038355;28;20275;-41
2023/08/17 05:02:06;;;;;;;0.30;0.30;;;26.90;63.60;;;27.30;48.39;95197.16;5037400;28;20232;-40
2023/08/17 05:04:33;;;;;;;0.30;0.30;;;26.90;63.60;;;27.27;49.05;95189.69;5037404;28;20728;-40
2023/08/17 05:07:00;;;;;;;0.30;0.30;;;26.90;63.60;;;27.33;48.54;95206.56;5037404;28;20210;-39
2023/08/17 05:09:28;;;;;;;0.30;0.30;;;26.90;63.70;;;27.33;48.94;95210.06;5038182;28;20250;-40
2023/08/17 05:11:55;;;;;;;0.32;0.32;;;26.90;63.80;;;27.37;48.78;95209.47;5020859;28;20237;-39
2023/08/17 05:14:22;;;;;;;0.30;0.30;;;26.90;63.80;;;27.38;49.06;95214.59;5037225;28;20215;-39
2023/08/17 05:16:49;;;;;;;0.30;0.30;;;26.90;63.70;;;27.38;48.74;95209.19;5053821;28;20220;-39
2023/08/17 05:19:16;;;;;;;0.30;0.30;;;26.90;63.70;;;27.38;48.70;95213.75;5053822;28;20275;-40
2023/08/17 05:21:44;;;;;;;0.30;0.30;;;27.00;63.70;;;27.35;48.30;95215.16;5036960;28;20612;-39
2023/08/17 05:24:11;;;;;;;0.30;0.30;;;27.00;63.70;;;27.33;48.61;95214.63;5037062;28;20287;-40
2023/08/17 05:26:39;;;;;;;0.30;0.30;;;27.00;63.60;;;27.33;49.20;95209.25;5053621;28;20535;-39
2023/08/17 05:29:07;;;;;;;0.20;0.20;;;27.00;63.70;;;27.35;48.84;95220.53;5038118;28;20650;-40
2023/08/17 05:31:34;;;;;;;0.30;0.30;;;26.90;63.70;;;27.36;48.82;95211.38;5036769;28;20295;-40
2023/08/17 05:34:01;;;;;;;0.30;0.30;;;26.90;63.80;;;27.36;48.86;95218.66;5036911;28;20709;-40
2023/08/17 05:36:29;;;;;;;0.40;0.40;;;26.90;63.70;;;27.38;48.73;95213.75;5036859;28;20206;-40
2023/08/17 05:38:56;;;;;;;0.30;0.30;;;26.90;63.80;;;27.40;49.05;95216.97;5036831;28;20203;-40
2023/08/17 05:41:24;;;;;;;0.30;0.30;;;27.00;63.90;;;27.42;49.00;95218.31;5053084;28;20695;-42
2023/08/17 05:43:51;;;;;;;0.20;0.20;;;27.00;63.90;;;27.43;48.81;95208.34;5037935;28;20642;-40
2023/08/17 05:46:18;;;;;;;0.20;0.20;;;27.00;64.00;;;27.45;48.86;95206.16;5037888;28;20285;-41
2023/08/17 05:48:46;;;;;;;0.20;0.20;;;27.00;64.00;;;27.47;48.75;95203.97;5036470;28;20291;-40
2023/08/17 05:51:13;;;;;;;0.30;0.30;;;27.00;64.00;;;27.47;49.07;95207.44;5036643;28;20277;-40
2023/08/17 05:53:40;;;;;;;0.30;0.30;;;27.00;63.90;;;27.51;48.78;95213.06;5037489;28;20283;-41
2023/08/17 05:56:08;;;;;;;0.32;0.32;;;27.10;64.00;;;27.53;49.43;95210.09;5053052;28;20266;-40
2023/08/17 05:58:36;;;;;;;0.30;0.30;;;27.10;63.90;;;27.54;49.34;95215.19;5037390;28;20195;-40
2023/08/17 06:01:11;;;;;;;0.30;0.30;;;27.10;63.90;;;27.56;48.79;95220.28;5037274;28;20515;-39
2023/08/17 06:03:38;;;;;;;0.30;0.30;;;27.10;63.80;;;27.55;49.21;95216.78;5036546;28;20206;-39
2023/08/17 06:06:06;;;;;;;0.30;0.30;;;27.10;63.80;;;27.58;49.31;95220.78;5037512;28;20211;-37
2023/08/17 06:08:33;;;;;;;0.30;0.30;;;27.20;63.90;;;27.59;49.47;95233.16;5037231;28;20203;-37
2023/08/17 06:11:00;;;;;;;0.30;0.30;;;27.10;63.80;;;27.59;49.06;95228.56;5037288;28;20226;-42
2023/08/17 06:13:27;;;;;;;0.30;0.30;;;27.10;63.80;;;27.59;48.72;95231.25;5036120;28;20196;-43
2023/08/17 06:15:56;;;;;;;0.30;0.30;;;27.20;63.80;;;27.60;49.21;95238.25;5037076;28;20220;-41
2023/08/17 06:18:25;;;;;;;0.30;0.30;;;27.20;63.80;;;27.61;48.90;95230.97;5036599;28;20249;-42
2023/08/17 06:20:53;;;;;;;0.20;0.20;;;27.20;63.80;;;27.62;49.29;95235.25;5037115;28;20283;-39
2023/08/17 06:23:21;;;;;;;0.30;0.30;;;27.20;63.80;;;27.62;48.80;95230.69;5036850;28;20205;-39
2023/08/17 06:25:48;;;;;;;0.30;0.30;;;27.20;63.80;;;27.64;48.78;95235.78;5036571;28;20204;-37
2023/08/17 06:28:15;;;;;;;0.30;0.30;;;27.20;63.80;;;27.66;48.75;95238.19;5037312;28;20230;-39
2023/08/17 06:30:42;;;;;;;0.30;0.30;;;27.20;63.90;;;27.66;49.27;95233.59;5037147;28;20212;-38
2023/08/17 06:33:09;;;;;;;0.35;0.35;;;27.20;63.90;;;27.67;48.77;95240.56;5037193;28;20201;-42
2023/08/17 06:35:36;;;;;;;0.30;0.30;;;27.30;63.90;;;27.68;49.12;95241.38;5036001;28;20225;-36
2023/08/17 06:38:04;;;;;;;0.30;0.30;;;27.30;63.90;;;27.68;48.57;95236.78;5036967;28;20222;-36
2023/08/17 06:40:31;;;;;;;0.30;0.30;;;27.20;63.80;;;27.71;48.81;95243.47;5035916;28;20298;-37
2023/08/17 06:42:58;;;;;;;0.30;0.30;;;27.20;63.80;;;27.71;48.72;95236.22;5036517;28;20201;-39
2023/08/17 06:45:25;;;;;;;0.40;0.40;;;27.30;63.90;;;27.73;49.28;95236.69;5035682;28;20615;-36
2023/08/17 06:47:52;;;;;;;0.30;0.30;;;27.30;63.90;;;27.74;49.23;95243.69;5036525;28;20245;-40
2023/08/17 06:50:20;;;;;;;0.30;0.30;;;27.30;63.90;;;27.76;49.43;95246.13;5036401;28;20222;-36
2023/08/17 06:52:47;;;;;;;0.30;0.30;;;27.30;63.90;;;27.77;48.80;95245.81;5035784;28;20202;-39
2023/08/17 06:55:15;;;;;;;0.30;0.30;;;27.40;64.00;;;27.81;49.40;95256.81;5036448;28;20661;-37
2023/08/17 06:57:42;;;;;;;0.25;0.25;;;27.40;63.90;;;27.83;49.18;95249.25;5036926;28;20275;-40
2023/08/17 07:00:13;;;;;;;0.40;0.40;;;27.40;64.80;;;27.84;48.74;95244.66;5036883;28;20235;-41
2023/08/17 07:02:40;;;;;;;0.40;0.40;;;27.40;63.90;;;27.85;49.15;95241.66;5036318;28;20542;-41
2023/08/17 07:05:20;;;;;;;0.30;0.30;;;27.40;63.90;;;27.86;49.40;95245.16;5036466;28;20197;-37
2023/08/17 07:07:47;;;;;;;0.30;0.30;;;27.40;63.90;;;27.89;49.37;95252.66;5036132;28;20200;-39
2023/08/17 07:10:15;;;;;;;0.30;0.30;;;27.40;63.90;;;27.90;49.32;95249.66;5036026;28;20649;-39
2023/08/17 07:12:42;;;;;;;0.20;0.20;;;27.50;64.00;;;27.90;49.37;95249.66;5036111;28;20189;-40
2023/08/17 07:15:10;;;;;;;0.22;0.22;;;27.50;63.90;;;27.93;49.10;95248.28;5036073;28;20199;-39
2023/08/17 07:17:37;;;;;;;0.20;0.20;;;27.50;64.00;;;27.93;48.87;95249.06;5036226;28;20286;-36
2023/08/17 07:20:07;;;;;;;0.30;0.30;;;27.50;63.90;;;27.96;48.98;95255.75;5035948;28;20702;-42
2023/08/17 07:22:43;;;;;;;0.30;0.30;;;27.50;64.00;;;27.97;48.71;95254.69;5035697;28;20218;-40
2023/08/17 07:25:11;;;;;;;0.20;0.20;;;27.60;64.00;;;28.00;48.83;95255.97;5035227;28;20536;-39
2023/08/17 07:27:38;;;;;;;0.30;0.30;;;27.50;64.00;;;28.01;49.39;95254.88;5051424;28;20354;-41
2023/08/17 07:30:06;;;;;;;0.20;0.20;;;27.60;64.00;;;28.03;48.98;95255.41;5036310;28;20652;-40
2023/08/17 07:32:35;;;;;;;0.30;0.30;;;27.60;64.00;;;28.03;48.84;95256.19;5035749;28;20215;-37
2023/08/17 07:35:02;;;;;;;0.20;0.20;;;27.60;64.00;;;28.05;48.85;95247.81;5034821;28;20206;-40
2023/08/17 07:37:33;;;;;;;0.30;0.30;;;27.60;64.00;;;28.07;48.81;95251.03;5034795;28;20196;-39
2023/08/17 07:40:03;;;;;;;0.30;0.30;;;27.60;64.00;;;28.08;49.35;95253.44;5035715;28;20611;-37
2023/08/17 07:42:31;;;;;;;0.20;0.20;;;27.60;64.00;;;28.10;48.84;95248.56;5035754;28;20192;-36
2023/08/17 07:44:58;;;;;;;0.30;0.30;;;27.60;64.00;;;28.12;48.89;95250.94;5035532;28;20227;-38
2023/08/17 07:47:25;;;;;;;0.30;0.30;;;27.70;64.00;;;28.13;48.89;95249.06;5034294;28;20296;-36
2023/08/17 07:49:53;;;;;;;0.30;0.30;;;27.70;64.00;;;28.14;49.04;95250.66;5035635;28;20256;-37
2023/08/17 07:52:20;;;;;;;0.30;0.30;;;27.70;64.00;;;28.16;49.43;95256.56;5035444;28;20222;-37
2023/08/17 07:54:47;;;;;;;0.35;0.35;;;27.70;64.00;;;28.17;49.41;95258.16;5035537;28;20293;-37
2023/08/17 07:57:15;;;;;;;0.30;0.30;;;27.70;64.00;;;28.17;48.77;95253.56;5035483;28;20209;-37
2023/08/17 07:59:42;;;;;;;0.30;0.30;;;27.70;64.00;;;28.19;48.95;95258.66;5034351;28;20198;-37
2023/08/17 08:02:09;;;;;;;0.30;0.30;;;27.70;64.00;;;28.20;49.40;95263.75;5035253;28;20219;-37
2023/08/17 08:04:36;;;;;;;0.30;0.30;;;27.70;63.90;;;28.22;49.12;95258.06;5034356;28;20307;-38
2023/08/17 08:07:03;;;;;;;0.30;0.30;;;27.70;63.90;;;28.22;48.92;95258.06;5035370;28;20576;-38
2023/08/17 08:09:30;;;;;;;0.20;0.20;;;27.70;63.90;;;28.24;48.78;95259.38;5035662;28;20350;-38
2023/08/17 08:11:57;;;;;;;0.40;0.40;;;27.80;64.00;;;28.25;49.34;95263.66;5035001;28;20214;-37
2023/08/17 08:14:25;;;;;;;0.30;0.30;;;27.80;64.00;;;28.25;49.20;95260.97;5036178;28;20198;-38
2023/08/17 08:16:52;;;;;;;0.25;0.25;;;27.80;64.00;;;28.27;48.67;95249.88;5035221;28;20214;-37
2023/08/17 08:19:19;;;;;;;0.30;0.30;;;27.80;64.00;;;28.30;48.70;95256.59;5034164;28;20218;-37
2023/08/17 08:21:46;;;;;;;0.30;0.30;;;27.80;64.00;;;28.30;49.29;95245.81;5034833;28;20221;-37
2023/08/17 08:24:13;;;;;;;0.20;0.20;;;27.80;63.90;;;28.31;48.74;95255.47;5034783;28;20202;-37
2023/08/17 08:26:57;;;;;;;0.30;0.30;;;27.80;64.00;;;28.33;48.57;95254.13;5035457;28;20182;-37
2023/08/17 08:29:24;;;;;;;0.30;0.30;;;27.80;63.90;;;28.34;49.31;95255.69;5033991;28;20287;-37
2023/08/17 08:31:51;;;;;;;0.30;0.30;;;27.80;64.00;;;28.34;49.26;95252.19;5035027;28;20696;-37
2023/08/17 08:34:18;;;;;;;0.40;0.40;;;27.80;63.90;;;28.36;48.74;95255.41;5034896;28;20194;-37
2023/08/17 08:36:45;;;;;;;0.30;0.30;;;27.90;64.00;;;28.39;49.22;95252.09;5034896;28;20596;-37
2023/08/17 08:39:12;;;;;;;0.30;0.30;;;27.90;64.00;;;28.41;49.37;95252.63;5034764;28;20198;-37
2023/08/17 08:41:39;;;;;;;0.25;0.25;;;27.90;64.00;;;28.42;48.75;95246.91;5035041;28;20217;-37
2023/08/17 08:44:06;;;;;;;0.30;0.30;;;27.90;64.00;;;28.44;49.42;95243.91;5034599;28;20281;-37
2023/08/17 08:46:35;;;;;;;0.30;0.30;;;28.00;64.10;;;28.47;48.82;95247.94;5034700;28;20269;-37
2023/08/17 08:49:05;;;;;;;0.28;0.28;;;28.00;64.00;;;28.48;49.28;95250.34;5034385;28;20277;-37
2023/08/17 08:51:35;;;;;;;0.30;0.30;;;28.00;64.00;;;28.51;48.71;95243.53;5034289;28;20302;-37
2023/08/17 08:54:05;;;;;;;0.40;0.40;;;28.00;64.00;;;28.52;49.27;95237.84;5034529;28;20215;-37
2023/08/17 08:56:33;;;;;;;0.30;0.30;;;28.00;64.00;;;28.53;48.63;95241.34;5034881;28;20207;-37
2023/08/17 08:59:05;;;;;;;0.30;0.30;;;28.00;64.00;;;28.56;49.17;95241.56;5034605;28;20578;-37
2023/08/17 09:01:33;;;;;;;0.30;0.30;;;28.10;64.00;;;28.57;48.72;95236.94;5034626;28;20215;-37
2023/08/17 09:04:02;;;;;;;0.30;0.30;;;28.10;63.90;;;28.58;48.75;95242.03;5034456;28;20206;-37
2023/08/17 09:06:30;;;;;;;0.20;0.20;;;28.10;63.90;;;28.62;49.05;95242.25;5033698;28;20254;-37
2023/08/17 09:08:59;;;;;;;0.30;0.30;;;28.10;63.90;;;28.63;49.08;95235.75;5035756;28;20210;-37
2023/08/17 09:11:26;;;;;;;0.20;0.20;;;28.10;63.90;;;28.64;48.82;95242.75;5033548;28;20235;-37
2023/08/17 09:13:54;;;;;;;0.30;0.30;;;28.10;63.90;;;28.66;48.76;95239.75;5034490;28;20596;-37
2023/08/17 09:16:22;;;;;;;0.30;0.30;;;28.10;63.90;;;28.68;49.28;95251.88;5036659;28;20197;-37
2023/08/17 09:18:53;;;;;;;0.28;0.28;;;28.20;64.80;;;28.70;49.09;95257.78;5037465;28;20204;-37
2023/08/17 09:21:22;;;;;;;0.30;0.30;;;28.20;63.90;;;28.70;49.22;95244.28;5038378;28;20201;-37
2023/08/17 09:23:55;;;;;;;0.30;0.30;;;28.20;63.90;;;28.72;48.92;95250.19;5037888;28;20195;-37
2023/08/17 09:26:32;;;;;;;0.20;0.20;;;28.20;63.90;;;28.73;48.84;95242.88;5038055;28;20183;-37
2023/08/17 09:29:01;;;;;;;0.30;0.30;;;28.20;63.80;;;28.75;48.50;95254.97;5038230;28;20568;-37
2023/08/17 09:31:32;;;;;;;0.20;0.20;;;28.30;63.80;;;28.75;48.85;95241.47;5037878;28;20219;-37
2023/08/17 09:34:06;;;;;;;0.30;0.30;;;28.30;63.80;;;28.77;48.78;95234.97;5037762;28;20176;-37
2023/08/17 09:36:36;;;;;;;0.30;0.30;;;28.30;63.80;;;28.77;49.15;95243.06;5037302;28;20259;-37
2023/08/17 09:39:03;;;;;;;0.30;0.30;;;28.30;63.80;;;28.79;48.29;95232.78;5038068;28;20612;-37
2023/08/17 09:41:30;;;;;;;0.30;0.30;;;28.30;63.80;;;28.80;48.94;95234.38;5037777;28;20225;-37
2023/08/17 09:43:58;;;;;;;0.20;0.20;;;28.30;63.80;;;28.82;49.01;95230.28;5037659;28;20207;-37
2023/08/17 09:46:26;;;;;;;0.30;0.30;;;28.30;63.80;;;28.83;48.79;95231.06;5036800;28;20199;-37
2023/08/17 09:48:54;;;;;;;0.38;0.38;;;28.30;63.80;;;28.85;48.08;95236.97;5036560;28;20239;-37
2023/08/17 09:51:21;;;;;;;0.30;0.30;;;28.30;63.80;;;28.86;48.55;95230.50;5037460;28;20216;-37
2023/08/17 09:53:54;;;;;;;0.30;0.30;;;28.30;63.70;;;28.87;48.46;95230.19;5036387;28;20678;-37
2023/08/17 09:56:28;;;;;;;0.30;0.30;;;28.40;63.70;;;28.89;48.90;95227.16;5037767;28;20335;-37
2023/08/17 09:58:55;;;;;;;0.20;0.20;;;28.40;63.70;;;28.91;48.77;95227.69;5037458;28;20503;-37
2023/08/17 10:01:24;;;;;;;0.22;0.22;;;28.40;63.70;;;28.92;48.95;95227.38;5036502;28;20239;-37
2023/08/17 10:03:53;;;;;;;0.20;0.20;;;28.40;63.60;;;28.95;48.09;95236.75;5036515;28;20200;-37
2023/08/17 10:06:24;;;;;;;0.30;0.30;;;28.40;63.60;;;28.96;48.81;95235.66;5037323;28;20203;-37
2023/08/17 10:08:56;;;;;;;0.30;0.30;;;28.40;63.50;;;28.98;48.77;95233.47;5037774;28;20215;-38
2023/08/17 10:11:26;;;;;;;0.20;0.20;;;28.40;63.50;;;29.01;48.18;95229.38;5036766;28;20249;-37
2023/08/17 10:14:04;;;;;;;0.30;0.30;;;28.40;63.60;;;29.02;48.54;95228.28;5003412;28;20208;-37
2023/08/17 10:16:45;;;;;;;0.30;0.30;;;28.50;63.50;;;29.04;48.17;95231.44;5021517;28;20541;-37
2023/08/17 10:19:36;;;;;;;0.30;0.30;;;28.50;63.50;;;29.03;48.67;95219.84;5037259;28;20188;-37
2023/08/17 10:22:18;;;;;;;0.22;0.22;;;28.50;63.50;;;29.05;48.16;95225.78;5036203;28;20575;-37
2023/08/17 10:24:46;;;;;;;0.30;0.30;;;28.50;63.50;;;29.08;48.63;95224.34;5035878;28;20207;-37
2023/08/17 10:27:15;;;;;;;0.30;0.30;;;28.50;63.50;;;29.11;48.08;95228.34;5035978;28;20199;-37